Fenton, MI

8:02 AM EST on December 22, 2014 (GMT -0500)
Forest Hills | Change Station
CLOSE
Current Station
Personal Weather Station
Location: Fenton, MI
Elevation: 919 ft
Nearby Weather Stations

Elev 919 ft 42.78 °N, 83.77 °W | Updated 11 seconds ago

Partly Cloudy
Partly Cloudy
25.0 °F
Feels Like 25 °F
N
0.0
Wind Variable Wind from East

Today
High -- | Low -- °F
--% Chance of Precip.
Yesterday
High -- | Low -- °F
Precip. -- in
8:02 AM 5:04 PM
New Moon, 0% visible
Pressure 30.12 in
Visibility 5.0 miles
Clouds Clear
Windchill 25 °F
Dew Point 21 °F
Humidity 83%
Rainfall 0.00 in
Snow Depth Not available.
UV 0 out of 12
Pollen .10 out of 12
Air Quality Not available.
Flu Activity Not available.
METAR KFNT 221253Z 08006KT 5SM HZ CLR M04/M07 A3009 RMK AO2 SLP199 T10391067

More Conditions Fewer Conditions

Pressure 30.12 in
Visibility 5.0 miles
Clouds Clear
Windchill 25 °F
Dew Point 21 °F
Humidity 83%
Rainfall 0.00 in
Snow Depth Not available.
UV 0 out of 12
Pollen .10 out of 12
Air Quality Not available.
Flu Activity Not available.
METAR KFNT 221253Z 08006KT 5SM HZ CLR M04/M07 A3009 RMK AO2 SLP199 T10391067

More Conditions Fewer Conditions

10-Day Weather Forecast

Almanac

Astronomy

Dec. 22, 2014 Rise Set
Actual Time
Civil Twilight
Nautical Twilight
Astronomical Twilight
Moon
Length of Visible Light
Length of Day
Tomorrow will be .
, % of the Moon is Illuminated

Today's Extremes

State Highs State Lows

Community

WunderPhotos

Upload Photos

1,779,597 photos uploaded!

WunderBlogs® & News

Nearby

Air Quality

  Air Quality AQ Index Pollutant
Not available.

Snow Depth

Station Depth Elevation

Earthquake Activity

City Distance Mag. Time & Date
Minimum magnitude displayed is 2.5.

Coastal Water Temperatures

Place Temperature

Nearby Weather Stations